Cumberland Island, Georgia
Current Conditions -  °F | °C
As of 2:55 AM on Wednesday 22 Oct 2014 (Local Time) from KFHB Reporting Station
Clear Clear  
Wind Chill: 66°   Ceiling: Unl
Heat Index: 66°   Visibility: 10mi
Dew Point: 63°   Wind: 5mph
Humidity: 88%   Direction: 290°WNW
Pressure: 29.93"   Gusts: NA
Location:  30.83°N, 81.45°W
Report Text: KFHB 220655Z AUTO 29004KT 10SM CLR 19/17 A2993 RMK AO1
Loading
Personal Weather Stations






























Interactive Weather Map
Tropical Storm Tracking
New forecast layout! Learn more

10-Day Weather Forecast

Advertisements
Track Severe Weather on mobile